sensor_id;sensor_type;location;lat;lon;timestamp;temperature;humidity
21445;DHT22;10883;51.946;20.140;2023-02-28T00:00:46;-2.00;99.90
21445;DHT22;10883;51.946;20.140;2023-02-28T00:03:11;-2.00;99.90
21445;DHT22;10883;51.946;20.140;2023-02-28T00:05:38;-2.00;99.90
21445;DHT22;10883;51.946;20.140;2023-02-28T00:08:04;-2.00;99.90
21445;DHT22;10883;51.946;20.140;2023-02-28T00:10:30;-2.00;99.90
21445;DHT22;10883;51.946;20.140;2023-02-28T00:13:03;-1.90;99.90
21445;DHT22;10883;51.946;20.140;2023-02-28T00:15:29;-2.00;99.90
21445;DHT22;10883;51.946;20.140;2023-02-28T00:17:55;-2.10;99.90
21445;DHT22;10883;51.946;20.140;2023-02-28T00:20:21;-2.20;99.90
21445;DHT22;10883;51.946;20.140;2023-02-28T00:22:50;-2.30;99.90
21445;DHT22;10883;51.946;20.140;2023-02-28T00:25:21;-2.50;99.90
21445;DHT22;10883;51.946;20.140;2023-02-28T00:27:48;-2.60;99.90
21445;DHT22;10883;51.946;20.140;2023-02-28T00:30:19;-2.60;99.90
21445;DHT22;10883;51.946;20.140;2023-02-28T00:32:46;-2.60;99.90
21445;DHT22;10883;51.946;20.140;2023-02-28T00:35:12;-2.70;99.90
21445;DHT22;10883;51.946;20.140;2023-02-28T00:37:38;-2.90;99.90
21445;DHT22;10883;51.946;20.140;2023-02-28T00:40:05;-3.10;99.90
21445;DHT22;10883;51.946;20.140;2023-02-28T00:42:32;-3.10;99.90
21445;DHT22;10883;51.946;20.140;2023-02-28T00:44:58;-3.20;99.90
21445;DHT22;10883;51.946;20.140;2023-02-28T00:47:24;-3.30;99.90
21445;DHT22;10883;51.946;20.140;2023-02-28T00:49:49;-3.40;99.90
21445;DHT22;10883;51.946;20.140;2023-02-28T00:52:15;-3.40;99.90
21445;DHT22;10883;51.946;20.140;2023-02-28T00:54:41;-3.50;99.90
21445;DHT22;10883;51.946;20.140;2023-02-28T00:57:06;-3.60;99.90
21445;DHT22;10883;51.946;20.140;2023-02-28T00:59:32;-3.80;99.90
21445;DHT22;10883;51.946;20.140;2023-02-28T01:01:58;-4.00;99.90
21445;DHT22;10883;51.946;20.140;2023-02-28T01:04:24;-4.00;99.90
21445;DHT22;10883;51.946;20.140;2023-02-28T01:06:50;-4.20;99.90
21445;DHT22;10883;51.946;20.140;2023-02-28T01:09:15;-4.20;99.90
21445;DHT22;10883;51.946;20.140;2023-02-28T01:11:42;-4.40;99.90
21445;DHT22;10883;51.946;20.140;2023-02-28T01:14:15;-4.50;99.90
21445;DHT22;10883;51.946;20.140;2023-02-28T01:16:42;-4.60;99.90
21445;DHT22;10883;51.946;20.140;2023-02-28T01:19:08;-4.70;99.90
21445;DHT22;10883;51.946;20.140;2023-02-28T01:21:34;-4.70;99.90
21445;DHT22;10883;51.946;20.140;2023-02-28T01:24:01;-4.80;99.90
21445;DHT22;10883;51.946;20.140;2023-02-28T01:26:27;-4.90;99.90
21445;DHT22;10883;51.946;20.140;2023-02-28T01:28:53;-5.00;99.90
21445;DHT22;10883;51.946;20.140;2023-02-28T01:31:20;-5.10;99.90
21445;DHT22;10883;51.946;20.140;2023-02-28T01:33:47;-5.10;99.90
21445;DHT22;10883;51.946;20.140;2023-02-28T01:36:18;-5.10;99.90
21445;DHT22;10883;51.946;20.140;2023-02-28T01:38:45;-5.20;99.90
21445;DHT22;10883;51.946;20.140;2023-02-28T01:41:23;-5.20;99.90
21445;DHT22;10883;51.946;20.140;2023-02-28T01:46:15;-5.30;99.90
21445;DHT22;10883;51.946;20.140;2023-02-28T01:49:28;-5.30;99.90
21445;DHT22;10883;51.946;20.140;2023-02-28T01:54:10;-5.50;99.90
21445;DHT22;10883;51.946;20.140;2023-02-28T01:57:27;-5.60;99.90
21445;DHT22;10883;51.946;20.140;2023-02-28T01:59:35;-5.60;99.90
21445;DHT22;10883;51.946;20.140;2023-02-28T02:02:04;-5.60;99.90
21445;DHT22;10883;51.946;20.140;2023-02-28T02:04:40;-5.60;99.90
21445;DHT22;10883;51.946;20.140;2023-02-28T02:07:07;-5.70;99.90
21445;DHT22;10883;51.946;20.140;2023-02-28T02:09:33;-5.70;99.90
21445;DHT22;10883;51.946;20.140;2023-02-28T02:12:05;-5.70;99.90
21445;DHT22;10883;51.946;20.140;2023-02-28T02:15:05;-5.70;99.90
21445;DHT22;10883;51.946;20.140;2023-02-28T02:17:43;-5.70;99.90
21445;DHT22;10883;51.946;20.140;2023-02-28T02:25:28;-5.70;99.90
21445;DHT22;10883;51.946;20.140;2023-02-28T02:28:05;-5.80;99.90
21445;DHT22;10883;51.946;20.140;2023-02-28T02:36:27;-5.90;99.90
21445;DHT22;10883;51.946;20.140;2023-02-28T02:38:58;-5.80;99.90
21445;DHT22;10883;51.946;20.140;2023-02-28T02:41:37;-5.90;99.90
21445;DHT22;10883;51.946;20.140;2023-02-28T02:44:37;-5.90;99.90
21445;DHT22;10883;51.946;20.140;2023-02-28T02:47:18;-6.00;99.90
21445;DHT22;10883;51.946;20.140;2023-02-28T02:49:52;-6.00;99.90
21445;DHT22;10883;51.946;20.140;2023-02-28T02:52:23;-6.00;99.90
21445;DHT22;10883;51.946;20.140;2023-02-28T02:54:52;-6.00;99.90
21445;DHT22;10883;51.946;20.140;2023-02-28T02:57:46;-6.00;99.90
21445;DHT22;10883;51.946;20.140;2023-02-28T03:00:16;-6.10;99.90
21445;DHT22;10883;51.946;20.140;2023-02-28T03:02:44;-6.10;99.90
21445;DHT22;10883;51.946;20.140;2023-02-28T03:05:29;-6.10;99.90
21445;DHT22;10883;51.946;20.140;2023-02-28T03:07:56;-6.20;99.90
21445;DHT22;10883;51.946;20.140;2023-02-28T03:10:33;-6.10;99.90
21445;DHT22;10883;51.946;20.140;2023-02-28T03:13:32;-6.10;99.90
21445;DHT22;10883;51.946;20.140;2023-02-28T03:22:16;-6.30;99.90
21445;DHT22;10883;51.946;20.140;2023-02-28T03:25:09;-6.30;99.90
21445;DHT22;10883;51.946;20.140;2023-02-28T03:33:32;-6.40;99.90
21445;DHT22;10883;51.946;20.140;2023-02-28T03:36:05;-6.50;99.90
21445;DHT22;10883;51.946;20.140;2023-02-28T03:38:41;-6.50;99.90
21445;DHT22;10883;51.946;20.140;2023-02-28T03:44:18;-6.50;99.90
21445;DHT22;10883;51.946;20.140;2023-02-28T03:46:54;-6.60;99.90
21445;DHT22;10883;51.946;20.140;2023-02-28T03:49:26;-6.60;99.90
21445;DHT22;10883;51.946;20.140;2023-02-28T03:51:54;-6.50;99.90
21445;DHT22;10883;51.946;20.140;2023-02-28T03:54:45;-6.60;99.90
21445;DHT22;10883;51.946;20.140;2023-02-28T04:00:03;-6.60;99.90
21445;DHT22;10883;51.946;20.140;2023-02-28T04:02:32;-6.70;99.90
21445;DHT22;10883;51.946;20.140;2023-02-28T04:04:59;-6.80;99.90
21445;DHT22;10883;51.946;20.140;2023-02-28T04:07:25;-6.80;99.90
21445;DHT22;10883;51.946;20.140;2023-02-28T04:09:54;-6.70;99.90
21445;DHT22;10883;51.946;20.140;2023-02-28T04:12:19;-6.70;99.90
21445;DHT22;10883;51.946;20.140;2023-02-28T04:14:46;-6.80;99.90
21445;DHT22;10883;51.946;20.140;2023-02-28T04:17:12;-6.80;99.90
21445;DHT22;10883;51.946;20.140;2023-02-28T04:19:38;-6.90;99.90
21445;DHT22;10883;51.946;20.140;2023-02-28T04:22:03;-6.90;99.90
21445;DHT22;10883;51.946;20.140;2023-02-28T04:24:29;-6.90;99.90
21445;DHT22;10883;51.946;20.140;2023-02-28T04:26:57;-7.00;99.90
21445;DHT22;10883;51.946;20.140;2023-02-28T04:29:24;-6.90;99.90
21445;DHT22;10883;51.946;20.140;2023-02-28T04:31:50;-7.00;99.90
21445;DHT22;10883;51.946;20.140;2023-02-28T04:34:18;-7.00;99.90
21445;DHT22;10883;51.946;20.140;2023-02-28T04:36:45;-7.00;99.90
21445;DHT22;10883;51.946;20.140;2023-02-28T04:39:11;-7.10;99.90
21445;DHT22;10883;51.946;20.140;2023-02-28T04:41:38;-7.10;99.90
21445;DHT22;10883;51.946;20.140;2023-02-28T04:44:03;-7.10;99.90
21445;DHT22;10883;51.946;20.140;2023-02-28T04:46:29;-7.10;99.90
21445;DHT22;10883;51.946;20.140;2023-02-28T04:48:56;-7.10;99.90
21445;DHT22;10883;51.946;20.140;2023-02-28T04:51:22;-7.10;99.90
21445;DHT22;10883;51.946;20.140;2023-02-28T04:53:48;-7.20;99.90
21445;DHT22;10883;51.946;20.140;2023-02-28T04:56:16;-7.20;99.90
21445;DHT22;10883;51.946;20.140;2023-02-28T04:58:42;-7.20;99.90
21445;DHT22;10883;51.946;20.140;2023-02-28T05:01:25;-7.20;99.90
21445;DHT22;10883;51.946;20.140;2023-02-28T05:03:52;-7.20;99.90
21445;DHT22;10883;51.946;20.140;2023-02-28T05:06:19;-7.20;99.90
21445;DHT22;10883;51.946;20.140;2023-02-28T05:08:46;-7.30;99.90
21445;DHT22;10883;51.946;20.140;2023-02-28T05:11:31;-7.20;99.90
21445;DHT22;10883;51.946;20.140;2023-02-28T05:14:01;-7.30;99.90
21445;DHT22;10883;51.946;20.140;2023-02-28T05:16:27;-7.40;99.90
21445;DHT22;10883;51.946;20.140;2023-02-28T05:18:53;-7.40;99.90
21445;DHT22;10883;51.946;20.140;2023-02-28T05:21:30;-7.40;99.90
21445;DHT22;10883;51.946;20.140;2023-02-28T05:23:59;-7.40;99.90
21445;DHT22;10883;51.946;20.140;2023-02-28T05:26:26;-7.40;99.90
21445;DHT22;10883;51.946;20.140;2023-02-28T05:28:52;-7.30;99.90
21445;DHT22;10883;51.946;20.140;2023-02-28T05:31:18;-7.30;99.90
21445;DHT22;10883;51.946;20.140;2023-02-28T05:33:44;-7.30;99.90
21445;DHT22;10883;51.946;20.140;2023-02-28T05:36:10;-7.30;99.90
21445;DHT22;10883;51.946;20.140;2023-02-28T05:38:37;-7.30;99.90
21445;DHT22;10883;51.946;20.140;2023-02-28T05:41:08;-7.20;99.90
21445;DHT22;10883;51.946;20.140;2023-02-28T05:43:35;-7.10;99.90
21445;DHT22;10883;51.946;20.140;2023-02-28T05:46:05;-7.10;99.90
21445;DHT22;10883;51.946;20.140;2023-02-28T05:48:33;-7.00;99.90
21445;DHT22;10883;51.946;20.140;2023-02-28T05:50:58;-7.00;99.90
21445;DHT22;10883;51.946;20.140;2023-02-28T05:53:25;-6.90;99.90
21445;DHT22;10883;51.946;20.140;2023-02-28T05:55:51;-6.90;99.90
21445;DHT22;10883;51.946;20.140;2023-02-28T05:58:17;-6.80;99.90
21445;DHT22;10883;51.946;20.140;2023-02-28T06:00:44;-6.80;99.90
21445;DHT22;10883;51.946;20.140;2023-02-28T06:03:09;-6.60;99.90
21445;DHT22;10883;51.946;20.140;2023-02-28T06:05:35;-6.50;99.90
21445;DHT22;10883;51.946;20.140;2023-02-28T06:08:01;-6.30;99.90
21445;DHT22;10883;51.946;20.140;2023-02-28T06:10:27;-6.10;99.90
21445;DHT22;10883;51.946;20.140;2023-02-28T06:12:52;-6.00;99.90
21445;DHT22;10883;51.946;20.140;2023-02-28T06:15:18;-5.80;99.90
21445;DHT22;10883;51.946;20.140;2023-02-28T06:17:46;-5.60;99.90
21445;DHT22;10883;51.946;20.140;2023-02-28T06:20:12;-5.30;99.90
21445;DHT22;10883;51.946;20.140;2023-02-28T06:22:39;-4.90;99.90
21445;DHT22;10883;51.946;20.140;2023-02-28T06:25:06;-4.40;99.90
21445;DHT22;10883;51.946;20.140;2023-02-28T06:27:33;-4.10;99.90
21445;DHT22;10883;51.946;20.140;2023-02-28T06:29:59;-3.70;99.90
21445;DHT22;10883;51.946;20.140;2023-02-28T06:32:25;-3.20;99.90
21445;DHT22;10883;51.946;20.140;2023-02-28T06:34:51;-2.90;99.90
21445;DHT22;10883;51.946;20.140;2023-02-28T06:37:17;-2.60;99.90
21445;DHT22;10883;51.946;20.140;2023-02-28T06:39:43;-2.10;99.90
21445;DHT22;10883;51.946;20.140;2023-02-28T06:42:09;-1.80;99.90
21445;DHT22;10883;51.946;20.140;2023-02-28T06:44:35;-1.30;99.90
21445;DHT22;10883;51.946;20.140;2023-02-28T06:47:02;-1.00;99.90
21445;DHT22;10883;51.946;20.140;2023-02-28T06:49:33;-0.70;99.90
21445;DHT22;10883;51.946;20.140;2023-02-28T06:51:59;-0.20;99.90
21445;DHT22;10883;51.946;20.140;2023-02-28T06:54:25;0.30;99.90
21445;DHT22;10883;51.946;20.140;2023-02-28T06:56:51;0.60;99.90
21445;DHT22;10883;51.946;20.140;2023-02-28T06:59:17;0.90;99.90
21445;DHT22;10883;51.946;20.140;2023-02-28T07:01:43;1.20;99.90
21445;DHT22;10883;51.946;20.140;2023-02-28T07:04:09;1.50;99.90
21445;DHT22;10883;51.946;20.140;2023-02-28T07:06:35;2.00;99.90
21445;DHT22;10883;51.946;20.140;2023-02-28T07:09:01;2.50;99.90
21445;DHT22;10883;51.946;20.140;2023-02-28T07:11:27;3.20;99.90
21445;DHT22;10883;51.946;20.140;2023-02-28T07:13:54;3.70;99.90
21445;DHT22;10883;51.946;20.140;2023-02-28T07:16:22;3.90;99.90
21445;DHT22;10883;51.946;20.140;2023-02-28T07:18:48;4.10;99.90
21445;DHT22;10883;51.946;20.140;2023-02-28T07:21:15;4.40;99.90
21445;DHT22;10883;51.946;20.140;2023-02-28T07:23:41;4.20;99.90
21445;DHT22;10883;51.946;20.140;2023-02-28T07:26:13;4.20;99.90
21445;DHT22;10883;51.946;20.140;2023-02-28T07:28:41;4.00;99.90
21445;DHT22;10883;51.946;20.140;2023-02-28T07:31:08;4.00;99.90
21445;DHT22;10883;51.946;20.140;2023-02-28T07:33:35;4.10;99.90
21445;DHT22;10883;51.946;20.140;2023-02-28T07:36:06;4.50;99.90
21445;DHT22;10883;51.946;20.140;2023-02-28T07:38:36;5.30;99.90
21445;DHT22;10883;51.946;20.140;2023-02-28T07:41:03;6.20;99.90
21445;DHT22;10883;51.946;20.140;2023-02-28T07:43:34;7.10;98.60
21445;DHT22;10883;51.946;20.140;2023-02-28T07:46:09;7.10;94.20
21445;DHT22;10883;51.946;20.140;2023-02-28T07:48:35;7.10;93.20
21445;DHT22;10883;51.946;20.140;2023-02-28T07:51:01;7.20;91.40
21445;DHT22;10883;51.946;20.140;2023-02-28T07:53:28;7.20;91.70
21445;DHT22;10883;51.946;20.140;2023-02-28T07:55:58;7.00;91.50
21445;DHT22;10883;51.946;20.140;2023-02-28T07:58:24;7.60;91.20
21445;DHT22;10883;51.946;20.140;2023-02-28T08:00:50;8.00;88.90
21445;DHT22;10883;51.946;20.140;2023-02-28T08:03:17;8.60;87.80
21445;DHT22;10883;51.946;20.140;2023-02-28T08:05:43;9.40;84.50
21445;DHT22;10883;51.946;20.140;2023-02-28T08:08:09;10.00;82.60
21445;DHT22;10883;51.946;20.140;2023-02-28T08:10:35;9.90;80.50
21445;DHT22;10883;51.946;20.140;2023-02-28T08:13:01;10.00;80.60
21445;DHT22;10883;51.946;20.140;2023-02-28T08:15:27;10.80;76.60
21445;DHT22;10883;51.946;20.140;2023-02-28T08:17:53;11.00;76.30
21445;DHT22;10883;51.946;20.140;2023-02-28T08:20:19;11.10;72.70
21445;DHT22;10883;51.946;20.140;2023-02-28T08:22:44;11.00;70.00
21445;DHT22;10883;51.946;20.140;2023-02-28T08:25:10;11.20;72.50
21445;DHT22;10883;51.946;20.140;2023-02-28T08:27:36;11.80;70.70
21445;DHT22;10883;51.946;20.140;2023-02-28T08:30:03;12.60;68.90
21445;DHT22;10883;51.946;20.140;2023-02-28T08:32:29;13.40;67.00
21445;DHT22;10883;51.946;20.140;2023-02-28T08:34:55;13.70;64.30
21445;DHT22;10883;51.946;20.140;2023-02-28T08:37:20;14.00;64.00
21445;DHT22;10883;51.946;20.140;2023-02-28T08:39:46;14.40;62.60
21445;DHT22;10883;51.946;20.140;2023-02-28T08:42:12;13.60;64.20
21445;DHT22;10883;51.946;20.140;2023-02-28T08:44:38;14.00;62.00
21445;DHT22;10883;51.946;20.140;2023-02-28T08:47:03;12.90;62.20
21445;DHT22;10883;51.946;20.140;2023-02-28T08:49:29;12.70;63.40
21445;DHT22;10883;51.946;20.140;2023-02-28T08:51:55;11.90;63.80
21445;DHT22;10883;51.946;20.140;2023-02-28T08:54:23;12.10;64.90
21445;DHT22;10883;51.946;20.140;2023-02-28T08:56:49;13.70;62.70
21445;DHT22;10883;51.946;20.140;2023-02-28T08:59:14;14.60;61.20
21445;DHT22;10883;51.946;20.140;2023-02-28T09:01:40;14.80;59.70
21445;DHT22;10883;51.946;20.140;2023-02-28T09:04:07;15.40;59.70
21445;DHT22;10883;51.946;20.140;2023-02-28T09:06:35;16.50;57.80
21445;DHT22;10883;51.946;20.140;2023-02-28T09:09:01;16.00;56.90
21445;DHT22;10883;51.946;20.140;2023-02-28T09:11:27;14.70;56.70
21445;DHT22;10883;51.946;20.140;2023-02-28T09:13:53;14.60;57.80
21445;DHT22;10883;51.946;20.140;2023-02-28T09:16:21;14.90;57.90
21445;DHT22;10883;51.946;20.140;2023-02-28T09:18:47;15.90;56.70
21445;DHT22;10883;51.946;20.140;2023-02-28T09:21:16;16.40;55.20
21445;DHT22;10883;51.946;20.140;2023-02-28T09:23:43;16.80;55.00
21445;DHT22;10883;51.946;20.140;2023-02-28T09:26:24;17.10;54.00
21445;DHT22;10883;51.946;20.140;2023-02-28T09:28:51;17.50;54.70
21445;DHT22;10883;51.946;20.140;2023-02-28T09:31:20;16.70;52.60
21445;DHT22;10883;51.946;20.140;2023-02-28T09:33:51;16.80;53.60
21445;DHT22;10883;51.946;20.140;2023-02-28T09:36:17;17.40;53.10
21445;DHT22;10883;51.946;20.140;2023-02-28T09:38:44;17.00;53.20
21445;DHT22;10883;51.946;20.140;2023-02-28T09:41:16;16.90;53.10
21445;DHT22;10883;51.946;20.140;2023-02-28T09:43:55;17.60;53.30
21445;DHT22;10883;51.946;20.140;2023-02-28T09:46:56;18.90;52.00
21445;DHT22;10883;51.946;20.140;2023-02-28T09:49:28;19.80;51.50
21445;DHT22;10883;51.946;20.140;2023-02-28T09:52:05;19.60;50.00
21445;DHT22;10883;51.946;20.140;2023-02-28T09:54:35;19.90;48.90
21445;DHT22;10883;51.946;20.140;2023-02-28T10:02:29;19.20;49.00
21445;DHT22;10883;51.946;20.140;2023-02-28T10:05:15;18.40;49.70
21445;DHT22;10883;51.946;20.140;2023-02-28T10:10:50;17.40;50.50
21445;DHT22;10883;51.946;20.140;2023-02-28T10:13:45;18.30;49.30
21445;DHT22;10883;51.946;20.140;2023-02-28T10:16:16;18.50;49.00
21445;DHT22;10883;51.946;20.140;2023-02-28T10:18:51;19.60;47.50
21445;DHT22;10883;51.946;20.140;2023-02-28T10:21:35;19.50;48.10
21445;DHT22;10883;51.946;20.140;2023-02-28T10:24:27;18.70;47.70
21445;DHT22;10883;51.946;20.140;2023-02-28T10:27:00;19.00;48.10
21445;DHT22;10883;51.946;20.140;2023-02-28T10:29:31;19.80;47.60
21445;DHT22;10883;51.946;20.140;2023-02-28T10:32:01;19.60;47.80
21445;DHT22;10883;51.946;20.140;2023-02-28T10:34:27;20.70;46.80
21445;DHT22;10883;51.946;20.140;2023-02-28T10:36:53;21.90;46.10
21445;DHT22;10883;51.946;20.140;2023-02-28T10:39:43;22.90;45.30
21445;DHT22;10883;51.946;20.140;2023-02-28T10:42:29;23.40;44.00
21445;DHT22;10883;51.946;20.140;2023-02-28T10:45:05;22.90;43.80
21445;DHT22;10883;51.946;20.140;2023-02-28T10:47:33;22.40;44.30
21445;DHT22;10883;51.946;20.140;2023-02-28T10:49:59;22.20;44.60
21445;DHT22;10883;51.946;20.140;2023-02-28T10:52:38;21.60;44.90
21445;DHT22;10883;51.946;20.140;2023-02-28T10:55:23;23.00;45.70
21445;DHT22;10883;51.946;20.140;2023-02-28T10:57:51;24.10;44.50
21445;DHT22;10883;51.946;20.140;2023-02-28T11:00:20;24.10;44.10
21445;DHT22;10883;51.946;20.140;2023-02-28T11:02:47;24.10;43.20
21445;DHT22;10883;51.946;20.140;2023-02-28T11:05:29;23.20;44.30
21445;DHT22;10883;51.946;20.140;2023-02-28T11:08:06;24.10;44.10
21445;DHT22;10883;51.946;20.140;2023-02-28T11:10:36;25.20;43.90
21445;DHT22;10883;51.946;20.140;2023-02-28T11:13:02;26.10;43.10
21445;DHT22;10883;51.946;20.140;2023-02-28T11:15:35;26.70;42.10
21445;DHT22;10883;51.946;20.140;2023-02-28T11:18:14;27.20;41.30
21445;DHT22;10883;51.946;20.140;2023-02-28T11:20:49;27.10;42.10
21445;DHT22;10883;51.946;20.140;2023-02-28T11:23:16;27.20;41.10
21445;DHT22;10883;51.946;20.140;2023-02-28T11:25:48;27.50;41.00
21445;DHT22;10883;51.946;20.140;2023-02-28T11:28:35;28.20;41.10
21445;DHT22;10883;51.946;20.140;2023-02-28T11:31:08;28.80;40.60
21445;DHT22;10883;51.946;20.140;2023-02-28T11:33:55;29.20;40.50
21445;DHT22;10883;51.946;20.140;2023-02-28T11:36:25;28.20;39.90
21445;DHT22;10883;51.946;20.140;2023-02-28T11:38:53;28.00;40.90
21445;DHT22;10883;51.946;20.140;2023-02-28T11:44:22;27.60;39.70
21445;DHT22;10883;51.946;20.140;2023-02-28T11:46:49;26.10;40.70
21445;DHT22;10883;51.946;20.140;2023-02-28T11:58:19;27.50;41.20
21445;DHT22;10883;51.946;20.140;2023-02-28T12:03:26;19.90;45.90
21445;DHT22;10883;51.946;20.140;2023-02-28T12:06:45;17.70;47.40
21445;DHT22;10883;51.946;20.140;2023-02-28T12:11:55;15.50;51.30
21445;DHT22;10883;51.946;20.140;2023-02-28T12:20:16;26.30;41.20
21445;DHT22;10883;51.946;20.140;2023-02-28T12:28:15;25.30;40.60
21445;DHT22;10883;51.946;20.140;2023-02-28T12:30:52;23.90;41.70
21445;DHT22;10883;51.946;20.140;2023-02-28T12:33:24;25.90;40.50
21445;DHT22;10883;51.946;20.140;2023-02-28T12:35:58;28.30;39.80
21445;DHT22;10883;51.946;20.140;2023-02-28T12:38:28;29.20;37.70
21445;DHT22;10883;51.946;20.140;2023-02-28T12:41:00;27.80;38.60
21445;DHT22;10883;51.946;20.140;2023-02-28T12:43:49;27.50;38.50
21445;DHT22;10883;51.946;20.140;2023-02-28T12:46:39;27.50;38.50
21445;DHT22;10883;51.946;20.140;2023-02-28T12:49:15;29.80;38.10
21445;DHT22;10883;51.946;20.140;2023-02-28T12:51:44;31.70;36.60
21445;DHT22;10883;51.946;20.140;2023-02-28T12:57:22;31.80;35.70
21445;DHT22;10883;51.946;20.140;2023-02-28T13:00:20;29.30;36.80
21445;DHT22;10883;51.946;20.140;2023-02-28T13:05:39;34.10;35.00
21445;DHT22;10883;51.946;20.140;2023-02-28T13:10:58;33.30;34.90
21445;DHT22;10883;51.946;20.140;2023-02-28T13:13:26;34.30;34.70
21445;DHT22;10883;51.946;20.140;2023-02-28T13:16:09;32.90;34.80
21445;DHT22;10883;51.946;20.140;2023-02-28T13:18:41;31.70;34.80
21445;DHT22;10883;51.946;20.140;2023-02-28T13:21:21;32.20;35.00
21445;DHT22;10883;51.946;20.140;2023-02-28T13:34:37;28.70;36.90
21445;DHT22;10883;51.946;20.140;2023-02-28T13:39:53;29.30;36.20
21445;DHT22;10883;51.946;20.140;2023-02-28T13:47:44;29.40;35.70
21445;DHT22;10883;51.946;20.140;2023-02-28T13:50:23;28.50;36.50
21445;DHT22;10883;51.946;20.140;2023-02-28T13:56:09;22.30;39.80
21445;DHT22;10883;51.946;20.140;2023-02-28T14:01:45;17.50;47.70
21445;DHT22;10883;51.946;20.140;2023-02-28T14:04:23;16.40;49.50
21445;DHT22;10883;51.946;20.140;2023-02-28T14:06:56;16.30;50.00
21445;DHT22;10883;51.946;20.140;2023-02-28T14:09:40;16.90;49.00
21445;DHT22;10883;51.946;20.140;2023-02-28T14:18:00;14.80;52.00
21445;DHT22;10883;51.946;20.140;2023-02-28T14:20:31;14.50;53.40
21445;DHT22;10883;51.946;20.140;2023-02-28T14:29:09;12.60;56.40
21445;DHT22;10883;51.946;20.140;2023-02-28T14:31:58;12.40;57.10
21445;DHT22;10883;51.946;20.140;2023-02-28T14:34:59;12.30;57.80
21445;DHT22;10883;51.946;20.140;2023-02-28T14:37:33;11.20;59.40
21445;DHT22;10883;51.946;20.140;2023-02-28T14:40:02;11.10;59.80
21445;DHT22;10883;51.946;20.140;2023-02-28T14:42:35;11.10;60.00
21445;DHT22;10883;51.946;20.140;2023-02-28T14:45:04;11.20;60.50
21445;DHT22;10883;51.946;20.140;2023-02-28T14:47:34;10.60;62.10
21445;DHT22;10883;51.946;20.140;2023-02-28T14:50:03;10.50;63.30
21445;DHT22;10883;51.946;20.140;2023-02-28T14:52:31;9.90;66.40
21445;DHT22;10883;51.946;20.140;2023-02-28T14:55:03;9.60;67.60
21445;DHT22;10883;51.946;20.140;2023-02-28T14:57:39;9.50;68.60
21445;DHT22;10883;51.946;20.140;2023-02-28T15:00:23;9.10;69.90
21445;DHT22;10883;51.946;20.140;2023-02-28T15:02:49;9.10;69.90
21445;DHT22;10883;51.946;20.140;2023-02-28T15:07:44;8.50;71.50
21445;DHT22;10883;51.946;20.140;2023-02-28T15:10:16;8.40;72.00
21445;DHT22;10883;51.946;20.140;2023-02-28T15:12:53;8.30;72.10
21445;DHT22;10883;51.946;20.140;2023-02-28T15:15:24;8.00;73.00
21445;DHT22;10883;51.946;20.140;2023-02-28T15:17:54;7.70;74.20
21445;DHT22;10883;51.946;20.140;2023-02-28T15:20:20;7.30;75.50
21445;DHT22;10883;51.946;20.140;2023-02-28T15:22:49;7.10;76.10
21445;DHT22;10883;51.946;20.140;2023-02-28T15:25:20;6.90;77.40
21445;DHT22;10883;51.946;20.140;2023-02-28T15:27:50;6.60;78.50
21445;DHT22;10883;51.946;20.140;2023-02-28T15:30:25;6.40;79.30
21445;DHT22;10883;51.946;20.140;2023-02-28T15:33:06;6.00;81.10
21445;DHT22;10883;51.946;20.140;2023-02-28T15:35:34;5.60;82.50
21445;DHT22;10883;51.946;20.140;2023-02-28T15:38:03;5.30;84.20
21445;DHT22;10883;51.946;20.140;2023-02-28T15:40:36;5.00;85.60
21445;DHT22;10883;51.946;20.140;2023-02-28T15:43:23;4.80;86.70
21445;DHT22;10883;51.946;20.140;2023-02-28T15:45:59;4.40;89.30
21445;DHT22;10883;51.946;20.140;2023-02-28T15:48:31;4.10;90.80
21445;DHT22;10883;51.946;20.140;2023-02-28T15:51:08;3.90;91.20
21445;DHT22;10883;51.946;20.140;2023-02-28T15:53:45;3.80;91.70
21445;DHT22;10883;51.946;20.140;2023-02-28T15:56:26;3.70;92.50
21445;DHT22;10883;51.946;20.140;2023-02-28T15:59:04;3.40;93.60
21445;DHT22;10883;51.946;20.140;2023-02-28T16:01:33;3.20;94.70
21445;DHT22;10883;51.946;20.140;2023-02-28T16:04:05;3.10;96.60
21445;DHT22;10883;51.946;20.140;2023-02-28T16:09:00;2.70;99.90
21445;DHT22;10883;51.946;20.140;2023-02-28T16:11:26;2.50;99.90
21445;DHT22;10883;51.946;20.140;2023-02-28T16:13:52;2.40;99.90
21445;DHT22;10883;51.946;20.140;2023-02-28T16:16:21;2.10;99.90
21445;DHT22;10883;51.946;20.140;2023-02-28T16:18:47;2.00;99.90
21445;DHT22;10883;51.946;20.140;2023-02-28T16:21:13;1.80;99.90
21445;DHT22;10883;51.946;20.140;2023-02-28T16:23:39;1.70;99.90
21445;DHT22;10883;51.946;20.140;2023-02-28T16:26:06;1.60;99.90
21445;DHT22;10883;51.946;20.140;2023-02-28T16:28:35;1.40;99.90
21445;DHT22;10883;51.946;20.140;2023-02-28T16:31:02;1.20;99.90
21445;DHT22;10883;51.946;20.140;2023-02-28T16:33:30;1.10;99.90
21445;DHT22;10883;51.946;20.140;2023-02-28T16:35:56;0.90;99.90
21445;DHT22;10883;51.946;20.140;2023-02-28T16:38:22;0.80;99.90
21445;DHT22;10883;51.946;20.140;2023-02-28T16:40:51;0.60;99.90
21445;DHT22;10883;51.946;20.140;2023-02-28T16:43:21;0.40;99.90
21445;DHT22;10883;51.946;20.140;2023-02-28T16:45:48;0.20;99.90
21445;DHT22;10883;51.946;20.140;2023-02-28T16:48:15;0.10;99.90
21445;DHT22;10883;51.946;20.140;2023-02-28T16:50:42;0.00;99.90
21445;DHT22;10883;51.946;20.140;2023-02-28T16:53:10;-0.10;99.90
21445;DHT22;10883;51.946;20.140;2023-02-28T16:55:36;-0.30;99.90
21445;DHT22;10883;51.946;20.140;2023-02-28T16:58:03;-0.40;99.90
21445;DHT22;10883;51.946;20.140;2023-02-28T17:00:30;-0.50;99.90
21445;DHT22;10883;51.946;20.140;2023-02-28T17:02:57;-0.60;99.90
21445;DHT22;10883;51.946;20.140;2023-02-28T17:05:25;-0.60;99.90
21445;DHT22;10883;51.946;20.140;2023-02-28T17:07:51;-0.80;99.90
21445;DHT22;10883;51.946;20.140;2023-02-28T17:10:20;-0.80;99.90
21445;DHT22;10883;51.946;20.140;2023-02-28T17:12:46;-1.00;99.90
21445;DHT22;10883;51.946;20.140;2023-02-28T17:15:14;-1.10;99.90
21445;DHT22;10883;51.946;20.140;2023-02-28T17:17:40;-1.20;99.90
21445;DHT22;10883;51.946;20.140;2023-02-28T17:20:11;-1.20;99.90
21445;DHT22;10883;51.946;20.140;2023-02-28T17:22:37;-1.20;99.90
21445;DHT22;10883;51.946;20.140;2023-02-28T17:25:03;-1.30;99.90
21445;DHT22;10883;51.946;20.140;2023-02-28T17:27:29;-1.40;99.90
21445;DHT22;10883;51.946;20.140;2023-02-28T17:29:55;-1.50;99.90
21445;DHT22;10883;51.946;20.140;2023-02-28T17:32:20;-1.60;99.90
21445;DHT22;10883;51.946;20.140;2023-02-28T17:34:46;-1.80;99.90
21445;DHT22;10883;51.946;20.140;2023-02-28T17:37:12;-1.90;99.90
21445;DHT22;10883;51.946;20.140;2023-02-28T17:39:38;-2.10;99.90
21445;DHT22;10883;51.946;20.140;2023-02-28T17:42:03;-2.00;99.90